»·PEaware :: N109MS KBFL-02CL

N109MS :: KBFL-02CL

FLIGHT INFORMATION

Flight Status: Arrived
Operator: Privately registered:
United States
More flights under this callsign
Pilot: Mike T. (22542)
Aircraft: CESSNA 182 SKYLANE
(C182)
More flights by this aircraft type
Origin: KBFL Meadows
United States
Destination: 02CL Conover Air Lodge
United States
More flights between these airports :: More routes between these airports
Route:
File this flight plan on PilotEdge
Remarks:
Altitude:
(Current/Filed)
8,500ft
Speed:
(Current/Filed)
130kts
Departed: 24-Dec-19 05:12 AM
Arrived: 24-Dec-19 05:34 AM
Distance/Time
Traveled:
40nm/0:21
Distance/Time
To Go:
Arrived

Flight Plot

Page will automatically refresh every two minutes.


Map Options




Map Legend


Flown Route
Filed Route
Departure Airport
Arrival Airport
Navaid (VOR, NDB)
Fix

Horizontal Profiles

Position Reports

Time Latitude Longitude Heading Altitude Ground
Speed
24-Dec-19 04:58 35.432708 -119.045689 129 510ft 0kts
24-Dec-19 04:59 35.432708 -119.045689 129 510ft 0kts
24-Dec-19 05:00 35.432708 -119.045689 129 510ft 0kts
24-Dec-19 05:01 35.432707 -119.045689 129 510ft 0kts
24-Dec-19 05:02 35.432707 -119.045688 129 510ft 0kts
24-Dec-19 05:03 35.432706 -119.045686 129 510ft 0kts
24-Dec-19 05:04 35.432705 -119.045685 129 510ft 0kts
24-Dec-19 05:05 35.432704 -119.045684 129 510ft 0kts
24-Dec-19 05:06 35.432491 -119.045660 184 510ft 6kts
24-Dec-19 05:07 35.429568 -119.047883 226 510ft 15kts
24-Dec-19 05:08 35.426503 -119.045238 185 510ft 10kts
24-Dec-19 05:09 35.426086 -119.045554 228 510ft 0kts
24-Dec-19 05:10 35.426374 -119.047180 316 510ft 31kts
24-Dec-19 05:11 35.443325 -119.067798 315 983ft 93kts
24-Dec-19 05:12 35.456891 -119.058711 134 1802ft 120kts
24-Dec-19 05:13 35.430196 -119.052368 194 3036ft 110kts
24-Dec-19 05:14 35.399314 -119.061515 195 4056ft 115kts
24-Dec-19 05:15 35.367382 -119.071565 197 5055ft 120kts
24-Dec-19 05:16 35.334156 -119.079804 195 6063ft 122kts
24-Dec-19 05:17 35.299573 -119.088213 189 7084ft 125kts
24-Dec-19 05:18 35.262480 -119.091361 182 8046ft 137kts
24-Dec-19 05:19 35.221759 -119.097033 183 8517ft 161kts
24-Dec-19 05:20 35.176365 -119.101271 177 8513ft 163kts
24-Dec-19 05:21 35.133375 -119.101026 178 8551ft 141kts
24-Dec-19 05:22 35.095175 -119.094604 177 8567ft 138kts
24-Dec-19 05:23 35.059594 -119.086392 176 8555ft 124kts
24-Dec-19 05:24 35.025903 -119.078143 176 8551ft 123kts
24-Dec-19 05:25 34.992458 -119.070306 176 8548ft 121kts
24-Dec-19 05:26 34.959473 -119.066208 176 8541ft 118kts
24-Dec-19 05:27 34.926262 -119.068134 178 8538ft 120kts
24-Dec-19 05:28 34.892463 -119.070913 178 8534ft 122kts
24-Dec-19 05:29 34.859181 -119.066880 178 8491ft 118kts
24-Dec-19 05:30 34.832252 -119.061930 170 7936ft 93kts
24-Dec-19 05:31 34.804566 -119.062242 172 7340ft 100kts
24-Dec-19 05:32 34.779576 -119.059274 173 5986ft 81kts
24-Dec-19 05:33 34.761087 -119.059222 283 5163ft 6kts
24-Dec-19 05:34 34.760464 -119.060830 271 5163ft 0kts
24-Dec-19 05:35 34.760464 -119.060830 271 5163ft 0kts
24-Dec-19 05:36 34.760464 -119.060830 271 5163ft 0kts
24-Dec-19 05:37 34.760464 -119.060830 271 5163ft 0kts
24-Dec-19 05:38 34.760464 -119.060830 271 5163ft 0kts
24-Dec-19 05:39 34.760464 -119.060830 271 5163ft 0kts
24-Dec-19 05:40 34.760464 -119.060830 271 5163ft 0kts
24-Dec-19 05:41 34.760464 -119.060830 271 5163ft 0kts
24-Dec-19 05:42 34.760464 -119.060830 271 5163ft 0kts
24-Dec-19 05:43 34.760464 -119.060830 271 5163ft 0kts
24-Dec-19 05:44 34.760464 -119.060830 271 5163ft 0kts
24-Dec-19 05:45 34.760464 -119.060830 271 5163ft 0kts
24-Dec-19 05:46 34.760464 -119.060830 271 5163ft 0kts
24-Dec-19 05:47 34.760464 -119.060830 271 5163ft 0kts

Navigation Log

Ident Type
Flight plan parsing failed, navigation log unavailable